Makushino, Russia
Current Conditions -  °F | °C
As of 8:30 AM on Sunday 25 Jan 2015 (Local Time) from UACP Reporting Station
Clear Clear  
Wind Chill: -33°   Ceiling: Unl
Heat Index: -20°   Visibility: 6mi
Dew Point: -24°   Wind: 4mph
Humidity: 83%   Direction: 210°SSW
Pressure: 30.95"   Gusts: NA
Location:  55.21°N, 67.24°E
Report Text: UACP 250330Z 21002MPS CAVOK M29/M31 Q1048 R23/8/99// NOSIG RMKQFE773/1031
Loading
Personal Weather Stations






























Interactive Weather Map New forecast layout! Learn more

10-Day Weather Forecast

Advertisements
Track Severe Weather on mobile